Time;durP1;ratioP1;P1;durP2;ratioP2;P2;SDS_P1;SDS_P2;PMS_P1;PMS_P2;Temp;Humidity;BMP_temperature;BMP_pressure;BME280_temperature;BME280_humidity;BME280_pressure;Samples;Min_cycle;Max_cycle;Signal;HPM_P1;HPM_P2
2023/11/16 00:00:41;;;;;;;11.80;6.75;;;;;;;11.48;66.64;99226.03;5093711;28;20024;-49
2023/11/16 00:03:07;;;;;;;13.90;6.72;;;;;;;11.50;65.46;99213.50;5093714;28;20020;-49
2023/11/16 00:05:36;;;;;;;12.98;6.25;;;;;;;11.21;65.20;99214.53;5075535;28;20551;-49
2023/11/16 00:08:07;;;;;;;12.70;5.75;;;;;;;10.98;65.63;99205.03;5092315;28;20043;-49
2023/11/16 00:10:37;;;;;;;15.45;6.95;;;;;;;10.75;65.59;99204.47;5093870;28;20400;-49
2023/11/16 00:13:04;;;;;;;15.77;9.40;;;;;;;10.30;65.95;99198.56;5092115;28;20024;-49
2023/11/16 00:15:30;;;;;;;15.98;7.05;;;;;;;9.95;66.52;99201.78;5093565;28;20024;-49
2023/11/16 00:17:57;;;;;;;11.38;6.00;;;;;;;9.97;68.36;99193.72;5092115;28;20512;-49
2023/11/16 00:20:23;;;;;;;13.27;7.25;;;;;;;10.45;68.67;99188.03;5092052;28;20066;-49
2023/11/16 00:22:48;;;;;;;13.05;5.95;;;;;;;10.87;67.84;99181.16;5092054;28;20048;-48
2023/11/16 00:25:16;;;;;;;11.43;6.55;;;;;;;10.86;66.34;99188.19;5093301;28;20546;-49
2023/11/16 00:27:43;;;;;;;13.52;6.13;;;;;;;10.49;65.99;99182.22;5093013;28;20048;-49
2023/11/16 00:30:09;;;;;;;12.57;7.10;;;;;;;10.16;66.87;99172.19;5092204;28;20487;-49
2023/11/16 00:32:35;;;;;;;12.13;6.97;;;;;;;10.26;68.62;99165.78;5091787;28;20394;-49
2023/11/16 00:35:01;;;;;;;11.93;5.97;;;;;;;10.75;68.50;99149.34;5093329;28;20023;-49
2023/11/16 00:37:27;;;;;;;9.85;5.57;;;;;;;11.23;67.26;99157.34;5093057;28;20024;-49
2023/11/16 00:39:57;;;;;;;11.07;6.25;;;;;;;11.46;65.79;99156.25;5091711;28;20494;-49
2023/11/16 00:42:23;;;;;;;17.60;6.45;;;;;;;11.44;65.05;99158.28;5092942;28;20060;-49
2023/11/16 00:44:49;;;;;;;13.05;6.95;;;;;;;11.51;65.11;99138.06;5092970;28;20074;-49
2023/11/16 00:47:18;;;;;;;13.45;8.32;;;;;;;11.33;64.31;99138.63;5092809;28;20046;-49
2023/11/16 00:49:48;;;;;;;21.83;11.50;;;;;;;10.92;65.04;99134.09;5092820;28;20059;-49
2023/11/16 00:52:14;;;;;;;22.98;15.70;;;;;;;10.74;66.08;99129.31;5091398;28;20062;-49
2023/11/16 00:54:40;;;;;;;18.77;11.77;;;;;;;10.88;65.87;99140.75;5091478;28;20030;-49
2023/11/16 00:57:06;;;;;;;36.47;32.72;;;;;;;10.88;66.33;99138.09;5091373;28;20110;-49
2023/11/16 00:59:32;;;;;;;50.88;45.25;;;;;;;10.98;65.64;99135.97;5074470;28;20086;-49
2023/11/16 01:01:59;;;;;;;111.95;101.38;;;;;;;11.12;65.67;99134.25;5092486;28;20394;-49
2023/11/16 01:04:25;;;;;;;26.23;23.63;;;;;;;11.15;64.81;99124.16;5091292;28;20056;-49
2023/11/16 01:06:53;;;;;;;18.75;15.90;;;;;;;10.88;65.12;99125.78;5091281;28;20051;-50
2023/11/16 01:09:19;;;;;;;13.57;10.30;;;;;;;10.89;66.08;99132.69;5092748;28;20093;-49
2023/11/16 01:11:44;;;;;;;20.20;13.18;;;;;;;11.03;66.35;99127.50;5091072;28;20042;-49
2023/11/16 01:14:16;;;;;;;16.50;7.50;;;;;;;11.35;66.56;99134.78;5090985;28;20016;-49
2023/11/16 01:16:42;;;;;;;13.10;6.32;;;;;;;11.78;65.24;99129.31;5092413;28;20020;-49
2023/11/16 01:19:08;;;;;;;12.85;6.45;;;;;;;12.04;64.49;99125.16;5090987;28;20028;-49
2023/11/16 01:21:41;;;;;;;13.88;7.38;;;;;;;11.97;63.49;99121.69;5090925;28;20371;-49
2023/11/16 01:24:11;;;;;;;14.52;8.90;;;;;;;11.67;63.72;99129.88;5092276;28;20032;-49
2023/11/16 01:26:40;;;;;;;30.02;26.85;;;;;;;11.47;63.89;99123.72;5091879;28;20068;-49
2023/11/16 01:29:09;;;;;;;18.58;11.68;;;;;;;11.16;63.78;99114.47;5092076;28;20050;-49
2023/11/16 01:31:39;;;;;;;12.98;9.25;;;;;;;10.79;64.20;99126.94;5091023;28;20035;-49
2023/11/16 01:34:09;;;;;;;12.85;8.80;;;;;;;10.41;65.25;99129.88;5092013;28;20020;-49
2023/11/16 01:36:37;;;;;;;14.38;8.13;;;;;;;10.09;65.71;99126.69;5092184;28;20103;-49
2023/11/16 01:39:03;;;;;;;15.05;7.57;;;;;;;9.77;66.52;99131.38;5092039;28;20103;-49
2023/11/16 01:41:28;;;;;;;12.05;7.75;;;;;;;9.84;68.14;99126.25;5090716;28;20028;-49
2023/11/16 01:43:56;;;;;;;39.58;35.38;;;;;;;9.96;67.79;99129.16;5090717;28;20142;-49
2023/11/16 01:46:26;;;;;;;15.98;7.57;;;;;;;9.91;67.99;99132.34;5091856;28;20054;-49
2023/11/16 01:48:54;;;;;;;11.90;7.05;;;;;;;10.05;68.78;99124.63;5091927;28;20028;-49
2023/11/16 01:51:22;;;;;;;11.35;5.97;;;;;;;10.53;69.21;99112.59;5091809;28;20116;-49
2023/11/16 01:53:55;;;;;;;15.52;6.40;;;;;;;11.08;67.51;99119.88;5091800;28;20469;-49
2023/11/16 01:56:21;;;;;;;11.77;6.63;;;;;;;11.31;66.86;99103.84;5091909;28;20405;-49
2023/11/16 01:58:49;;;;;;;14.98;11.23;;;;;;;11.55;66.33;99102.50;5090868;28;20020;-49
2023/11/16 02:01:16;;;;;;;10.98;6.03;;;;;;;11.70;65.39;99100.56;5090445;28;20498;-49
2023/11/16 02:03:44;;;;;;;17.15;9.80;;;;;;;11.78;64.44;99081.97;5091808;28;20024;-49
2023/11/16 02:06:09;;;;;;;13.50;6.70;;;;;;;11.67;64.01;99074.69;5090458;28;20028;-49
2023/11/16 02:08:36;;;;;;;19.48;13.93;;;;;;;11.38;63.98;99081.81;5073667;28;20173;-49
2023/11/16 02:11:02;;;;;;;16.13;10.32;;;;;;;10.98;64.18;99071.09;5091701;28;20516;-49
2023/11/16 02:13:28;;;;;;;14.98;8.80;;;;;;;10.54;64.95;99072.25;5093534;28;20069;-49
2023/11/16 02:15:55;;;;;;;13.18;8.32;;;;;;;10.15;65.98;99084.00;5096042;28;20027;-49
2023/11/16 02:18:22;;;;;;;11.55;6.45;;;;;;;9.83;66.68;99081.84;5095816;28;20017;-49
2023/11/16 02:20:49;;;;;;;13.65;8.65;;;;;;;9.73;68.43;99088.19;5077621;28;20509;-49
2023/11/16 02:23:15;;;;;;;15.43;11.70;;;;;;;10.14;69.38;99087.63;5077599;28;20032;-49
2023/11/16 02:25:47;;;;;;;9.70;5.85;;;;;;;10.41;68.24;99084.44;5095602;28;20028;-49
2023/11/16 02:28:13;;;;;;;15.13;9.52;;;;;;;10.40;67.74;99078.38;5095393;28;20048;-49
2023/11/16 02:30:40;;;;;;;14.07;6.57;;;;;;;10.35;68.43;99070.28;5095581;28;20043;-49
2023/11/16 02:33:06;;;;;;;12.60;8.48;;;;;;;10.73;68.78;99062.88;5094111;28;20032;-49
2023/11/16 02:35:33;;;;;;;9.68;6.05;;;;;;;11.30;68.85;99062.78;5094141;28;20028;-49
2023/11/16 02:37:59;;;;;;;22.05;19.65;;;;;;;11.40;70.29;99056.16;5094095;28;20035;-49
2023/11/16 02:40:26;;;;;;;13.07;8.10;;;;;;;11.07;71.87;99057.84;5095382;28;20016;-48
2023/11/16 02:42:52;;;;;;;62.40;56.45;;;;;;;10.70;73.03;99062.44;5094064;28;20031;-48
2023/11/16 02:45:18;;;;;;;42.45;37.45;;;;;;;10.45;74.79;99057.63;5093952;28;20028;-48
2023/11/16 02:47:46;;;;;;;22.67;18.58;;;;;;;10.18;74.68;99059.19;5095244;28;20027;-48
2023/11/16 02:50:16;;;;;;;17.35;13.45;;;;;;;9.92;76.29;99067.63;5095168;28;20497;-48
2023/11/16 02:52:44;;;;;;;37.50;33.75;;;;;;;9.98;78.40;99059.03;5095046;28;20074;-47
2023/11/16 02:55:10;;;;;;;13.55;6.30;;;;;;;10.24;78.97;99055.84;5093745;28;20520;-48
2023/11/16 02:57:39;;;;;;;18.02;9.88;;;;;;;10.36;78.61;99056.13;5093759;28;20028;-48
2023/11/16 03:00:08;;;;;;;13.05;5.75;;;;;;;10.13;77.66;99048.47;5094950;28;20489;-48
2023/11/16 03:02:36;;;;;;;10.68;5.30;;;;;;;10.07;78.33;99026.41;5095250;28;20455;-48
2023/11/16 03:05:02;;;;;;;9.80;4.32;;;;;;;10.12;78.12;99024.06;5093643;28;20063;-48
2023/11/16 03:07:28;;;;;;;14.50;4.85;;;;;;;10.11;77.23;99021.63;5093517;28;20383;-48
2023/11/16 03:09:53;;;;;;;12.57;4.90;;;;;;;9.89;74.98;99015.56;5094822;28;20028;-48
2023/11/16 03:12:21;;;;;;;61.05;55.35;;;;;;;9.77;78.03;99016.06;5094915;28;20024;-47
2023/11/16 03:14:47;;;;;;;15.50;13.95;;;;;;;9.57;79.84;99005.38;5094721;28;20017;-47
2023/11/16 03:17:12;;;;;;;25.17;22.60;;;;;;;9.04;80.44;99006.59;5094633;28;20196;-47
2023/11/16 03:19:41;;;;;;;15.43;11.25;;;;;;;8.38;82.00;99002.81;5094640;28;20459;-47
2023/11/16 03:22:07;;;;;;;14.02;9.57;;;;;;;7.98;84.17;98994.34;5094444;28;20107;-47
2023/11/16 03:24:33;;;;;;;15.77;6.53;;;;;;;7.94;85.93;98994.88;5092923;28;20500;-48
2023/11/16 03:26:59;;;;;;;50.05;45.30;;;;;;;8.13;87.97;98999.63;5094196;28;20028;-48
2023/11/16 03:29:25;;;;;;;130.35;116.85;;;;;;;8.44;89.40;98995.31;5094415;28;20076;-48
2023/11/16 03:31:51;;;;;;;54.70;43.78;;;;;;;8.92;90.26;98985.28;5093006;28;20024;-48
2023/11/16 03:34:17;;;;;;;18.55;13.07;;;;;;;9.28;88.86;98984.53;5094297;28;20027;-47
2023/11/16 03:36:43;;;;;;;15.18;8.82;;;;;;;9.30;86.74;98983.34;5094264;28;20020;-48
2023/11/16 03:39:12;;;;;;;12.77;7.88;;;;;;;9.16;86.19;98966.66;5092930;28;20081;-47
2023/11/16 03:41:37;;;;;;;21.88;19.63;;;;;;;9.13;86.71;98953.91;5093330;28;20389;-48
2023/11/16 03:44:04;;;;;;;49.75;44.90;;;;;;;9.07;86.61;98953.84;5094142;28;20024;-48
2023/11/16 03:46:29;;;;;;;13.70;11.07;;;;;;;9.41;87.34;98968.94;5092804;28;20123;-48
2023/11/16 03:48:55;;;;;;;14.55;4.95;;;;;;;9.65;86.75;98970.38;5094030;28;20449;-48
2023/11/16 03:51:21;;;;;;;12.50;5.10;;;;;;;9.95;87.06;98972.88;5092701;28;20016;-48
2023/11/16 03:53:47;;;;;;;5.85;4.07;;;;;;;10.35;85.42;98958.28;5092598;28;20024;-48
2023/11/16 03:56:13;;;;;;;7.35;4.90;;;;;;;10.75;85.07;98955.06;5093915;28;20087;-48
2023/11/16 03:58:38;;;;;;;17.13;4.18;;;;;;;11.13;83.58;98973.81;5092550;28;20024;-48
2023/11/16 04:01:04;;;;;;;14.95;5.13;;;;;;;11.28;81.90;98978.91;5093813;28;20017;-48
2023/11/16 04:03:31;;;;;;;11.98;7.70;;;;;;;11.32;80.46;98971.44;5093807;28;20028;-48
2023/11/16 04:05:58;;;;;;;11.90;5.50;;;;;;;11.03;79.73;98959.41;5093671;28;20099;-48
2023/11/16 04:08:23;;;;;;;8.13;5.35;;;;;;;10.82;80.76;98955.09;5092404;28;20020;-48
2023/11/16 04:10:49;;;;;;;49.35;44.42;;;;;;;10.82;80.69;98949.84;5093583;28;20119;-48
2023/11/16 04:13:17;;;;;;;28.70;25.60;;;;;;;10.74;80.55;98945.56;5093528;28;20020;-48
2023/11/16 04:15:45;;;;;;;14.63;10.02;;;;;;;10.74;80.88;98929.81;5093497;28;20073;-48
2023/11/16 04:18:11;;;;;;;10.05;6.03;;;;;;;10.87;79.98;98922.00;5093503;28;20028;-48
2023/11/16 04:20:37;;;;;;;10.15;5.75;;;;;;;10.96;78.69;98922.63;5093388;28;20669;-48
2023/11/16 04:23:02;;;;;;;10.30;5.18;;;;;;;11.02;77.99;98923.66;5093339;28;20444;-48
2023/11/16 04:25:29;;;;;;;8.10;3.88;;;;;;;11.01;77.01;98914.97;5092056;28;20505;-48
2023/11/16 04:28:05;;;;;;;10.95;5.88;;;;;;;11.20;75.78;98918.66;5092989;28;20040;-48
2023/11/16 04:30:31;;;;;;;9.68;3.80;;;;;;;11.20;74.77;98913.41;5093235;28;20031;-48
2023/11/16 04:33:00;;;;;;;15.13;12.20;;;;;;;10.93;74.23;98921.22;5091754;28;20028;-48
2023/11/16 04:35:25;;;;;;;7.38;3.65;;;;;;;11.03;74.09;98917.38;5092440;28;20439;-48
2023/11/16 04:37:54;;;;;;;16.70;12.88;;;;;;;11.06;73.65;98917.00;5093111;28;20107;-48
2023/11/16 04:40:21;;;;;;;9.05;6.88;;;;;;;11.09;73.09;98911.38;5093300;28;20151;-49
2023/11/16 04:42:49;;;;;;;5.30;3.42;;;;;;;10.88;72.38;98902.59;5091707;28;20401;-48
2023/11/16 04:45:15;;;;;;;8.20;4.32;;;;;;;10.67;72.62;98893.03;5092907;28;20032;-49
2023/11/16 04:47:44;;;;;;;7.75;3.60;;;;;;;10.90;73.04;98890.09;5093163;28;20027;-49
2023/11/16 04:50:16;;;;;;;19.25;3.35;;;;;;;11.29;72.21;98893.84;5091649;28;20028;-49
2023/11/16 04:52:45;;;;;;;13.50;5.95;;;;;;;11.74;70.49;98895.88;5092738;28;20032;-49
2023/11/16 04:55:11;;;;;;;129.93;83.88;;;;;;;11.95;69.49;98895.72;5091450;28;20491;-49
2023/11/16 04:57:37;;;;;;;397.25;244.80;;;;;;;12.27;68.38;98895.84;5091407;28;20097;-49
2023/11/16 05:00:10;;;;;;;40.20;27.67;;;;;;;12.50;67.37;98886.69;5091343;28;20027;-49
2023/11/16 05:02:36;;;;;;;19.88;10.00;;;;;;;12.43;66.44;98868.28;5092582;28;20020;-49
2023/11/16 05:05:03;;;;;;;18.00;7.35;;;;;;;12.18;65.73;98847.09;5091258;28;20027;-49
2023/11/16 05:07:29;;;;;;;13.00;6.35;;;;;;;11.92;66.06;98855.84;5092833;28;20032;-49
2023/11/16 05:09:58;;;;;;;12.75;5.15;;;;;;;11.79;66.20;98869.78;5091189;28;20060;-49
2023/11/16 05:12:25;;;;;;;11.00;6.07;;;;;;;11.64;66.88;98877.88;5092355;28;20027;-49
2023/11/16 05:14:53;;;;;;;11.88;7.40;;;;;;;11.55;67.15;98874.66;5092354;28;20031;-49
2023/11/16 05:17:20;;;;;;;14.27;4.95;;;;;;;11.62;67.61;98889.63;5092311;28;20020;-49
2023/11/16 05:19:47;;;;;;;13.10;5.13;;;;;;;11.74;67.18;98882.75;5091165;28;20585;-49
2023/11/16 05:22:14;;;;;;;11.88;6.47;;;;;;;11.77;66.91;98870.00;5092256;28;20031;-49
2023/11/16 05:24:39;;;;;;;13.30;4.50;;;;;;;11.76;67.01;98867.56;5092304;28;20134;-49
2023/11/16 05:27:05;;;;;;;8.70;7.22;;;;;;;11.88;67.15;98865.13;5090694;28;20551;-49
2023/11/16 05:29:31;;;;;;;9.05;3.30;;;;;;;11.92;66.55;98855.84;5092260;28;20429;-49
2023/11/16 05:31:58;;;;;;;9.07;6.78;;;;;;;11.67;66.41;98853.00;5092112;28;20016;-49
2023/11/16 05:34:27;;;;;;;10.00;6.00;;;;;;;11.51;66.74;98851.59;5090754;28;20111;-49
2023/11/16 05:36:54;;;;;;;14.88;6.90;;;;;;;11.61;66.84;98841.50;5092000;28;20051;-49
2023/11/16 05:39:20;;;;;;;7.75;5.03;;;;;;;11.46;66.84;98843.53;5092088;28;20024;-49
2023/11/16 05:41:46;;;;;;;15.48;6.53;;;;;;;11.24;67.31;98850.78;5092002;28;20440;-49
2023/11/16 05:44:15;;;;;;;15.15;9.88;;;;;;;11.13;67.51;98852.19;5092011;28;20386;-49
2023/11/16 05:46:43;;;;;;;9.60;4.03;;;;;;;11.17;68.61;98845.53;5091957;28;20398;-49
2023/11/16 05:49:09;;;;;;;8.68;4.32;;;;;;;11.50;68.20;98842.91;5091918;28;20425;-49
2023/11/16 05:51:39;;;;;;;10.23;3.40;;;;;;;11.97;66.88;98837.63;5091931;28;20494;-49
2023/11/16 05:54:08;;;;;;;13.38;3.63;;;;;;;12.17;65.99;98835.78;5091801;28;20051;-49
2023/11/16 05:56:43;;;;;;;11.18;2.95;;;;;;;12.10;65.46;98836.81;5074356;28;20023;-49
2023/11/16 05:59:09;;;;;;;7.32;3.10;;;;;;;12.19;65.53;98839.00;5091867;28;20116;-50
2023/11/16 06:01:37;;;;;;;11.75;3.97;;;;;;;12.30;64.51;98834.13;5091842;28;20066;-49
2023/11/16 06:04:08;;;;;;;13.75;10.82;;;;;;;12.45;64.38;98832.03;5092009;28;20032;-49
2023/11/16 06:06:35;;;;;;;9.27;6.28;;;;;;;12.69;63.99;98840.22;5091795;28;20023;-49
2023/11/16 06:09:05;;;;;;;9.35;5.43;;;;;;;12.93;63.54;98846.59;5091754;28;20032;-49
2023/11/16 06:11:31;;;;;;;14.88;3.90;;;;;;;13.04;62.64;98845.94;5092051;28;20024;-49
2023/11/16 06:13:59;;;;;;;10.38;4.95;;;;;;;12.97;62.23;98843.31;5091621;28;20546;-49
2023/11/16 06:16:25;;;;;;;17.77;4.63;;;;;;;12.85;62.42;98844.19;5091609;28;20042;-49
2023/11/16 06:18:57;;;;;;;21.30;5.68;;;;;;;12.78;63.30;98839.78;5091652;28;20070;-49
2023/11/16 06:21:24;;;;;;;11.27;5.00;;;;;;;12.85;62.87;98838.94;5091712;28;20017;-49
2023/11/16 06:23:50;;;;;;;14.68;4.88;;;;;;;12.86;62.90;98838.72;5091618;28;20035;-49
2023/11/16 06:26:17;;;;;;;27.17;15.55;;;;;;;12.81;63.21;98845.66;5091313;28;20020;-50
2023/11/16 06:28:43;;;;;;;9.38;5.20;;;;;;;12.94;62.92;98843.75;5091579;28;20068;-49
2023/11/16 06:31:09;;;;;;;12.32;6.00;;;;;;;12.95;62.49;98853.25;5090204;28;20028;-49
2023/11/16 06:33:35;;;;;;;13.43;5.03;;;;;;;12.69;61.80;98850.75;5090140;28;20086;-49
2023/11/16 06:36:01;;;;;;;13.90;5.22;;;;;;;12.33;62.91;98852.91;5090188;28;20055;-49
2023/11/16 06:38:30;;;;;;;15.40;6.80;;;;;;;12.28;64.96;98844.84;5091565;28;20028;-49
2023/11/16 06:40:57;;;;;;;13.75;4.65;;;;;;;12.49;65.27;98832.41;5091359;28;20055;-49
2023/11/16 06:43:24;;;;;;;11.55;7.70;;;;;;;12.76;64.51;98838.38;5091720;28;20028;-49
2023/11/16 06:45:49;;;;;;;14.57;9.15;;;;;;;12.98;63.80;98849.41;5091355;28;20482;-49
2023/11/16 06:48:15;;;;;;;9.75;6.68;;;;;;;13.15;63.21;98849.69;5091450;28;20065;-49
2023/11/16 06:50:41;;;;;;;12.93;5.53;;;;;;;13.10;62.64;98873.22;5090080;28;20028;-49
2023/11/16 06:53:09;;;;;;;15.18;6.35;;;;;;;12.86;62.22;98872.97;5091257;28;20032;-49
2023/11/16 06:55:45;;;;;;;15.02;9.25;;;;;;;12.74;63.22;98862.28;5090045;28;20016;-49
2023/11/16 06:58:12;;;;;;;;;;;;;;;12.71;63.31;98854.00;5091821;28;20028;-49
2023/11/16 07:00:37;;;;;;;10.07;4.55;;;;;;;12.93;63.27;98860.56;5094638;28;19908;-49
2023/11/16 07:03:04;;;;;;;12.95;7.20;;;;;;;13.10;62.73;98858.25;5093649;28;20398;-49
2023/11/16 07:05:32;;;;;;;12.15;5.20;;;;;;;13.19;63.06;98862.22;5093715;28;20058;-49
2023/11/16 07:07:58;;;;;;;15.05;5.68;;;;;;;13.14;63.97;98842.84;5094834;28;20032;-49
2023/11/16 07:10:24;;;;;;;14.15;7.60;;;;;;;12.49;65.50;98840.31;5094745;28;20064;-49
2023/11/16 07:12:51;;;;;;;14.02;5.72;;;;;;;11.89;68.10;98836.03;5093354;28;20074;-49
2023/11/16 07:15:17;;;;;;;20.17;12.95;;;;;;;11.45;71.25;98844.50;5094744;28;20058;-49
2023/11/16 07:17:43;;;;;;;16.73;6.05;;;;;;;11.28;73.30;98852.00;5095038;28;20023;-49
2023/11/16 07:20:13;;;;;;;12.23;5.32;;;;;;;11.28;75.14;98863.31;5094611;28;20024;-49
2023/11/16 07:22:42;;;;;;;11.02;6.55;;;;;;;11.31;75.98;98862.91;5094614;28;20035;-49
2023/11/16 07:25:09;;;;;;;9.60;5.80;;;;;;;11.37;77.06;98866.56;5093210;28;20493;-50
2023/11/16 07:27:38;;;;;;;9.02;4.07;;;;;;;11.56;76.39;98857.06;5094181;28;20050;-49
2023/11/16 07:30:04;;;;;;;5.32;3.10;;;;;;;11.54;74.77;98869.59;5093282;28;20106;-49
2023/11/16 07:32:30;;;;;;;9.10;4.25;;;;;;;11.25;72.22;98866.34;5093224;28;20028;-49
2023/11/16 07:34:56;;;;;;;9.45;4.35;;;;;;;10.83;72.38;98870.09;5094395;28;20024;-49
2023/11/16 07:37:23;;;;;;;15.55;5.03;;;;;;;10.41;73.08;98851.75;5094373;28;20124;-49
2023/11/16 07:39:49;;;;;;;7.85;3.85;;;;;;;10.10;73.04;98857.38;5094219;28;20055;-49
2023/11/16 07:42:15;;;;;;;7.90;4.28;;;;;;;9.76;74.57;98859.81;5094139;28;20074;-49
2023/11/16 07:44:44;;;;;;;11.55;5.13;;;;;;;9.49;75.62;98857.97;5094200;28;20077;-49
2023/11/16 07:47:13;;;;;;;10.65;3.75;;;;;;;9.39;76.11;98859.09;5094096;28;20561;-49
2023/11/16 07:49:40;;;;;;;10.27;3.67;;;;;;;9.53;76.10;98854.78;5094076;28;20020;-49
2023/11/16 07:52:06;;;;;;;11.40;4.28;;;;;;;9.62;76.74;98847.63;5094060;28;20043;-49
2023/11/16 07:54:32;;;;;;;9.18;3.42;;;;;;;10.01;77.03;98848.88;5093919;28;20024;-49
2023/11/16 07:57:04;;;;;;;8.35;3.47;;;;;;;10.30;75.17;98832.13;5092588;28;20097;-49
2023/11/16 07:59:34;;;;;;;9.13;3.50;;;;;;;10.15;73.09;98824.34;5093958;28;20024;-49
2023/11/16 08:02:00;;;;;;;9.13;3.60;;;;;;;9.94;73.06;98837.53;5092510;28;20020;-49
2023/11/16 08:04:34;;;;;;;10.23;5.63;;;;;;;9.81;74.11;98817.28;5093722;28;20103;-49
2023/11/16 08:07:02;;;;;;;11.27;6.72;;;;;;;9.90;74.80;98804.84;5094355;28;20117;-49
2023/11/16 08:09:29;;;;;;;11.32;4.72;;;;;;;9.86;75.14;98807.06;5092392;28;20417;-49
2023/11/16 08:11:56;;;;;;;9.75;5.45;;;;;;;9.89;75.01;98775.19;5091234;28;20031;-49
2023/11/16 08:14:25;;;;;;;7.43;4.82;;;;;;;9.89;75.00;98750.81;5093525;28;20051;-49
2023/11/16 08:16:55;;;;;;;319.52;262.65;;;;;;;10.07;75.80;98769.44;5093500;28;20057;-49
2023/11/16 08:19:31;;;;;;;19.17;11.07;;;;;;;10.34;71.55;98766.94;5093809;28;20546;-49
2023/11/16 08:21:59;;;;;;;14.88;8.00;;;;;;;10.35;69.36;98779.06;5093449;28;20115;-49
2023/11/16 08:24:30;;;;;;;18.27;10.98;;;;;;;10.20;69.34;98779.16;5093355;28;20532;-49
2023/11/16 08:26:58;;;;;;;434.27;384.88;;;;;;;10.08;71.32;98776.31;5093227;28;20405;-49
2023/11/16 08:29:25;;;;;;;1073.35;707.85;;;;;;;9.89;72.61;98775.19;5091965;28;20485;-49
2023/11/16 08:31:56;;;;;;;114.97;73.70;;;;;;;9.74;74.45;98770.09;5093119;28;20063;-49
2023/11/16 08:34:27;;;;;;;32.20;20.33;;;;;;;9.62;75.74;98763.75;5093422;28;20101;-49
2023/11/16 08:36:52;;;;;;;397.73;298.17;;;;;;;9.62;76.29;98771.63;5093403;28;20517;-49
2023/11/16 08:39:19;;;;;;;41.72;24.17;;;;;;;9.72;75.92;98771.28;5091799;28;20118;-49
2023/11/16 08:41:45;;;;;;;281.08;203.98;;;;;;;9.84;75.91;98750.56;5092994;28;20070;-49
2023/11/16 08:44:12;;;;;;;368.20;278.10;;;;;;;10.05;73.26;98732.13;5092939;28;20758;-49
2023/11/16 08:46:43;;;;;;;764.67;566.92;;;;;;;10.27;74.27;98726.75;5092937;28;20055;-49
2023/11/16 08:49:11;;;;;;;153.68;111.80;;;;;;;10.39;73.04;98717.34;5093017;28;20028;-49
2023/11/16 08:51:38;;;;;;;29.33;20.23;;;;;;;10.51;70.21;98707.06;5092755;28;20022;-49
2023/11/16 08:54:08;;;;;;;9.70;6.72;;;;;;;10.61;69.34;98704.06;5092725;28;20016;-49
2023/11/16 08:56:35;;;;;;;5.88;3.78;;;;;;;10.71;68.33;98713.16;5074746;28;20032;-49
2023/11/16 08:59:07;;;;;;;7.93;5.50;;;;;;;10.82;66.83;98714.38;5092697;28;20058;-49
2023/11/16 09:01:37;;;;;;;8.00;3.13;;;;;;;10.91;66.52;98696.63;5092640;28;20036;-49
2023/11/16 09:04:03;;;;;;;3.38;1.42;;;;;;;11.00;65.19;98680.44;5092547;28;20031;-49
2023/11/16 09:06:30;;;;;;;8.05;2.80;;;;;;;11.10;65.67;98679.22;5091349;28;20444;-50
2023/11/16 09:08:59;;;;;;;8.60;2.67;;;;;;;11.12;65.25;98680.63;5092611;28;20028;-49
2023/11/16 09:11:27;;;;;;;6.03;2.58;;;;;;;11.18;65.41;98694.78;5092757;28;20049;-49
2023/11/16 09:13:53;;;;;;;7.55;1.70;;;;;;;11.25;65.16;98703.47;5092467;28;20032;-49
2023/11/16 09:16:21;;;;;;;2.38;1.30;;;;;;;11.32;64.42;98712.13;5092426;28;20023;-49
2023/11/16 09:18:47;;;;;;;4.60;1.98;;;;;;;11.39;63.89;98709.50;5092395;28;20024;-49
2023/11/16 09:21:14;;;;;;;3.05;1.77;;;;;;;11.52;61.90;98669.25;5092288;28;20034;-49
2023/11/16 09:23:40;;;;;;;3.45;1.25;;;;;;;11.66;61.05;98652.41;5092137;28;20114;-49
2023/11/16 09:26:09;;;;;;;4.72;1.23;;;;;;;11.77;59.37;98666.72;5090909;28;20024;-50
2023/11/16 09:28:38;;;;;;;2.22;1.65;;;;;;;11.68;61.41;98665.34;5092505;28;20448;-48
2023/11/16 09:31:11;;;;;;;4.65;0.68;;;;;;;11.46;61.41;98664.81;5090942;28;20016;-49
2023/11/16 09:33:40;;;;;;;3.88;1.77;;;;;;;11.20;62.97;98640.22;5091018;28;20465;-49
2023/11/16 09:36:08;;;;;;;1.33;0.80;;;;;;;11.29;62.50;98620.59;5092156;28;20025;-49
2023/11/16 09:38:34;;;;;;;2.85;0.85;;;;;;;11.48;61.63;98636.50;5092137;28;20485;-49
2023/11/16 09:41:21;;;;;;;1.30;0.70;;;;;;;11.60;61.02;98634.84;5073856;28;20028;-49
2023/11/16 09:43:54;;;;;;;4.53;1.23;;;;;;;11.72;60.61;98614.78;5090824;28;20024;-49
2023/11/16 09:46:26;;;;;;;3.72;1.90;;;;;;;11.81;60.54;98623.22;5092078;28;20034;-49
2023/11/16 09:48:58;;;;;;;5.40;3.60;;;;;;;11.82;61.59;98619.59;5092278;28;20031;-49
2023/11/16 09:51:26;;;;;;;2.75;1.50;;;;;;;11.77;60.36;98627.28;5092023;28;20427;-49
2023/11/16 09:53:58;;;;;;;2.15;1.00;;;;;;;11.84;59.98;98620.19;5090495;28;20050;-49
2023/11/16 09:56:27;;;;;;;1.80;0.95;;;;;;;11.97;59.85;98617.53;5092184;28;20035;-49
2023/11/16 09:59:02;;;;;;;1.83;1.02;;;;;;;12.04;59.28;98606.97;5090782;28;20509;-49
2023/11/16 10:01:38;;;;;;;3.05;0.57;;;;;;;12.15;60.02;98602.84;5091112;28;20412;-49
2023/11/16 10:04:10;;;;;;;2.35;0.75;;;;;;;12.13;59.04;98586.47;5090705;28;20446;-49
2023/11/16 10:06:37;;;;;;;3.35;0.90;;;;;;;12.07;61.43;98590.72;5091819;28;20023;-49
2023/11/16 10:09:14;;;;;;;1.80;1.10;;;;;;;11.93;61.89;98584.78;5090445;28;20044;-49
2023/11/16 10:11:41;;;;;;;6.60;3.20;;;;;;;12.01;63.53;98585.53;5091990;28;20035;-49
2023/11/16 10:14:07;;;;;;;4.07;1.70;;;;;;;12.44;63.58;98566.41;5090344;28;20497;-49
2023/11/16 10:16:33;;;;;;;6.22;2.42;;;;;;;12.65;61.92;98570.47;5090356;28;20035;-49
2023/11/16 10:19:10;;;;;;;8.02;4.00;;;;;;;13.19;61.80;98569.72;5090359;28;20063;-49
2023/11/16 10:21:44;;;;;;;8.23;1.70;;;;;;;13.48;60.82;98566.56;5091642;28;20505;-49
2023/11/16 10:24:10;;;;;;;4.30;3.33;;;;;;;13.34;59.80;98565.94;5090356;28;20524;-49
2023/11/16 10:26:36;;;;;;;6.32;2.05;;;;;;;12.85;60.80;98560.56;5089961;28;20052;-50
2023/11/16 10:29:01;;;;;;;6.75;2.63;;;;;;;12.46;62.20;98573.06;5090399;28;20035;-49
2023/11/16 10:31:32;;;;;;;2.53;1.20;;;;;;;12.26;63.37;98562.69;5090533;28;20055;-50
2023/11/16 10:33:58;;;;;;;3.05;0.93;;;;;;;11.92;64.51;98550.78;5092354;28;20039;-49
2023/11/16 10:36:27;;;;;;;8.85;5.22;;;;;;;11.64;66.72;98541.41;5094303;28;20057;-49
2023/11/16 10:38:57;;;;;;;4.63;3.45;;;;;;;11.55;65.93;98526.88;5094091;28;20502;-49
2023/11/16 10:41:24;;;;;;;2.95;1.63;;;;;;;11.59;66.25;98507.88;5095433;28;20035;-49
2023/11/16 10:43:56;;;;;;;2.25;1.20;;;;;;;11.83;65.89;98494.16;5077190;28;20371;-49
2023/11/16 10:46:27;;;;;;;1.83;0.95;;;;;;;12.15;62.85;98492.34;5095346;28;20118;-49
2023/11/16 10:48:53;;;;;;;3.75;1.20;;;;;;;12.42;59.82;98461.34;5095234;28;20028;-49
2023/11/16 10:51:24;;;;;;;5.28;0.93;;;;;;;12.65;59.12;98470.44;5077069;28;20448;-49
2023/11/16 10:53:53;;;;;;;5.25;0.93;;;;;;;13.04;58.55;98442.00;5093813;28;20028;-49
2023/11/16 10:56:19;;;;;;;8.38;1.75;;;;;;;13.91;57.23;98439.00;5095036;28;20050;-49
2023/11/16 10:58:47;;;;;;;4.20;1.70;;;;;;;14.89;52.44;98426.88;5095086;28;20020;-49
2023/11/16 11:01:17;;;;;;;3.83;1.00;;;;;;;15.35;50.04;98432.19;5094104;28;20025;-47
2023/11/16 11:03:45;;;;;;;2.80;1.00;;;;;;;15.90;48.20;98407.75;5094923;28;20052;-47
2023/11/16 11:06:22;;;;;;;5.93;0.85;;;;;;;16.13;46.54;98413.91;5095013;28;20098;-47
2023/11/16 11:08:48;;;;;;;4.97;1.13;;;;;;;15.76;46.41;98401.19;5093681;28;20016;-47
2023/11/16 11:11:23;;;;;;;4.55;1.20;;;;;;;15.40;47.95;98394.50;5093559;28;20024;-47
2023/11/16 11:13:53;;;;;;;3.72;0.80;;;;;;;15.22;47.33;98384.94;5094868;28;20371;-47
2023/11/16 11:16:19;;;;;;;3.05;0.70;;;;;;;15.21;46.22;98381.44;5094753;28;20032;-46
2023/11/16 11:18:48;;;;;;;5.32;0.90;;;;;;;15.18;46.67;98364.22;5094718;28;20102;-47
2023/11/16 11:21:18;;;;;;;1.55;0.80;;;;;;;15.26;46.79;98378.91;5094623;28;20020;-47
2023/11/16 11:24:01;;;;;;;2.05;1.00;;;;;;;15.30;46.21;98353.59;5094871;28;20427;-47
2023/11/16 11:26:40;;;;;;;3.55;0.80;;;;;;;15.65;46.13;98349.13;5094379;28;20148;-47
2023/11/16 11:29:08;;;;;;;3.60;0.80;;;;;;;16.17;44.95;98362.84;5094527;28;20020;-47